Time;durP1;ratioP1;P1;durP2;ratioP2;P2;SDS_P1;SDS_P2;PMS_P1;PMS_P2;Temp;Humidity;BMP_temperature;BMP_pressure;BME280_temperature;BME280_humidity;BME280_pressure;Samples;Min_cycle;Max_cycle;Signal;HPM_P1;HPM_P2
2021/08/20 00:00:15;;;;;;;29.08;25.92;;;17.00;99.90;;;;;;2630453;54;20841;-78
2021/08/20 00:02:45;;;;;;;29.55;26.38;;;17.10;99.90;;;;;;2630564;54;20163;-79
2021/08/20 00:05:14;;;;;;;27.35;24.55;;;17.10;99.90;;;;;;2630495;54;20169;-80
2021/08/20 00:07:42;;;;;;;28.75;25.70;;;17.10;99.90;;;;;;2630598;54;20169;-79
2021/08/20 00:10:12;;;;;;;25.88;23.15;;;17.00;99.90;;;;;;2630536;54;20161;-80
2021/08/20 00:12:41;;;;;;;24.63;22.17;;;17.10;99.90;;;;;;2630621;54;20249;-79
2021/08/20 00:15:11;;;;;;;23.75;21.20;;;17.10;99.90;;;;;;2630226;47;20188;-79
2021/08/20 00:17:43;;;;;;;23.05;20.73;;;17.10;99.90;;;;;;2630452;54;20154;-80
2021/08/20 00:20:12;;;;;;;20.98;18.83;;;17.10;99.90;;;;;;2630611;54;20142;-80
2021/08/20 00:22:41;;;;;;;21.63;19.42;;;17.10;99.90;;;;;;2630471;46;20177;-77
2021/08/20 00:25:11;;;;;;;21.05;19.05;;;17.00;99.90;;;;;;2630158;54;20153;-79
2021/08/20 00:27:40;;;;;;;23.75;19.88;;;17.10;99.90;;;;;;2630556;54;20137;-80
2021/08/20 00:30:12;;;;;;;22.13;19.80;;;17.00;99.90;;;;;;2630413;54;20153;-77
2021/08/20 00:32:44;;;;;;;22.67;20.45;;;17.10;99.90;;;;;;2630185;47;20225;-79
2021/08/20 00:35:14;;;;;;;25.08;21.88;;;17.20;99.90;;;;;;2629021;47;20200;-78
2021/08/20 00:37:43;;;;;;;23.55;21.15;;;17.20;99.90;;;;;;2629967;54;20200;-77
2021/08/20 00:40:16;;;;;;;25.23;22.55;;;17.10;99.90;;;;;;2629896;54;20726;-77
2021/08/20 00:42:45;;;;;;;23.20;20.52;;;17.00;99.90;;;;;;2629715;47;20132;-78
2021/08/20 00:45:14;;;;;;;23.45;20.90;;;16.90;99.90;;;;;;2630388;39;20748;-79
2021/08/20 00:47:45;;;;;;;24.17;21.58;;;17.10;99.90;;;;;;2630243;54;20146;-76
2021/08/20 00:50:14;;;;;;;24.67;21.98;;;16.90;99.90;;;;;;2630963;47;20279;-76
2021/08/20 00:52:43;;;;;;;22.73;20.42;;;16.90;99.90;;;;;;2630166;54;20161;-78
2021/08/20 00:55:14;;;;;;;23.80;21.27;;;16.90;99.90;;;;;;2630814;54;20185;-78
2021/08/20 00:57:47;;;;;;;27.50;23.17;;;16.90;99.90;;;;;;2629174;47;20156;-79
2021/08/20 01:00:21;;;;;;;23.17;20.13;;;16.90;99.90;;;;;;2630891;54;20164;-78
2021/08/20 01:02:53;;;;;;;24.15;21.52;;;17.10;99.90;;;;;;2630403;46;20265;-78
2021/08/20 01:05:22;;;;;;;24.02;21.50;;;17.00;99.90;;;;;;2630730;54;20723;-79
2021/08/20 01:07:51;;;;;;;23.30;20.83;;;17.00;99.90;;;;;;2630925;54;20156;-80
2021/08/20 01:10:20;;;;;;;23.38;20.98;;;17.00;99.90;;;;;;2630562;54;20142;-78
2021/08/20 01:12:49;;;;;;;22.83;20.40;;;16.90;99.90;;;;;;2630676;47;20157;-79
2021/08/20 01:15:18;;;;;;;23.60;21.15;;;17.00;99.90;;;;;;2630256;54;20256;-77
2021/08/20 01:17:55;;;;;;;24.98;22.48;;;17.00;99.90;;;;;;2630669;47;20144;-78
2021/08/20 01:20:23;;;;;;;26.55;23.50;;;17.00;99.90;;;;;;2630787;47;20164;-78
2021/08/20 01:22:53;;;;;;;26.52;23.70;;;17.10;99.90;;;;;;2630437;54;20849;-79
2021/08/20 01:25:24;;;;;;;27.60;24.02;;;17.20;99.90;;;;;;2630701;46;20149;-78
2021/08/20 01:28:06;;;;;;;26.23;23.42;;;17.10;99.90;;;;;;2630835;54;20765;-78
2021/08/20 01:30:37;;;;;;;27.17;23.83;;;17.00;99.90;;;;;;2630998;47;20144;-79
2021/08/20 01:33:07;;;;;;;26.98;24.10;;;17.00;99.90;;;;;;2630230;54;20154;-78
2021/08/20 01:35:37;;;;;;;27.25;24.55;;;17.00;99.90;;;;;;2630159;54;20177;-79
2021/08/20 01:38:06;;;;;;;28.05;25.17;;;16.90;99.90;;;;;;2630537;54;20142;-79
2021/08/20 01:40:38;;;;;;;27.77;24.77;;;16.80;99.90;;;;;;2630688;54;20145;-78
2021/08/20 01:43:07;;;;;;;25.92;23.27;;;16.80;99.90;;;;;;2630437;47;20831;-78
2021/08/20 01:45:37;;;;;;;25.63;23.05;;;16.70;99.90;;;;;;2630157;47;20204;-78
2021/08/20 01:48:07;;;;;;;30.65;24.52;;;16.80;99.90;;;;;;2630704;54;20170;-78
2021/08/20 01:50:38;;;;;;;28.50;25.58;;;16.70;99.90;;;;;;2630373;47;20145;-79
2021/08/20 01:53:07;;;;;;;28.48;25.10;;;16.80;99.90;;;;;;2630291;47;20701;-78
2021/08/20 01:55:38;;;;;;;26.70;23.90;;;16.80;99.90;;;;;;2629246;54;20177;-78
2021/08/20 01:58:08;;;;;;;29.25;24.73;;;16.80;99.90;;;;;;2630731;46;20173;-80
2021/08/20 02:00:37;;;;;;;27.45;24.52;;;16.80;99.90;;;;;;2629941;54;20145;-77
2021/08/20 02:03:06;;;;;;;26.17;23.58;;;16.80;99.90;;;;;;2629329;47;20149;-79
2021/08/20 02:05:35;;;;;;;25.50;23.02;;;16.70;99.90;;;;;;2629948;54;20155;-78
2021/08/20 02:08:07;;;;;;;28.15;25.45;;;16.60;99.90;;;;;;2630755;54;20177;-80
2021/08/20 02:10:38;;;;;;;28.33;25.40;;;16.70;99.90;;;;;;2631235;31;20830;-78
2021/08/20 02:13:07;;;;;;;27.63;24.73;;;16.60;99.90;;;;;;2630161;46;20152;-79
2021/08/20 02:15:37;;;;;;;29.55;26.45;;;16.60;99.90;;;;;;2630571;47;20172;-78
2021/08/20 02:18:06;;;;;;;28.45;25.38;;;16.60;99.90;;;;;;2631292;39;20609;-76
2021/08/20 02:20:40;;;;;;;27.73;24.92;;;16.60;99.90;;;;;;2632174;39;20603;-80
2021/08/20 02:23:12;;;;;;;29.85;26.63;;;16.60;99.90;;;;;;2630605;54;20145;-79
2021/08/20 02:25:48;;;;;;;27.85;24.45;;;16.60;99.90;;;;;;2627977;47;20204;-79
2021/08/20 02:28:17;;;;;;;29.00;25.88;;;16.60;99.90;;;;;;2630174;47;20166;-80
2021/08/20 02:30:45;;;;;;;27.58;24.98;;;16.70;99.90;;;;;;2630961;46;20142;-80
2021/08/20 02:33:14;;;;;;;26.05;23.25;;;16.70;99.90;;;;;;2630728;47;20152;-80
2021/08/20 02:35:43;;;;;;;26.27;23.77;;;16.70;99.90;;;;;;2630684;47;20164;-80
2021/08/20 02:38:12;;;;;;;28.30;24.73;;;16.80;99.90;;;;;;2631042;54;20197;-80
2021/08/20 02:40:41;;;;;;;24.02;21.52;;;16.70;99.90;;;;;;2630810;47;20415;-81
2021/08/20 02:43:13;;;;;;;25.20;22.17;;;16.70;99.90;;;;;;2630834;47;20146;-79
2021/08/20 02:45:42;;;;;;;24.27;21.85;;;16.70;99.90;;;;;;2630600;51;20181;-80
2021/08/20 02:48:11;;;;;;;21.75;19.65;;;16.60;99.90;;;;;;2630681;54;20153;-80
2021/08/20 02:50:40;;;;;;;21.95;19.80;;;16.70;99.90;;;;;;2630677;47;20146;-80
2021/08/20 02:53:09;;;;;;;21.13;18.92;;;16.70;99.90;;;;;;2630846;47;20149;-79
2021/08/20 02:55:39;;;;;;;21.35;19.10;;;16.70;99.90;;;;;;2630483;54;20212;-80
2021/08/20 02:58:09;;;;;;;22.02;19.88;;;16.50;99.90;;;;;;2630892;54;20149;-80
2021/08/20 03:00:51;;;;;;;19.08;17.10;;;16.60;99.90;;;;;;2630793;47;20136;-77
2021/08/20 03:03:20;;;;;;;23.35;17.15;;;16.60;99.90;;;;;;2630885;47;20800;-79
2021/08/20 03:05:49;;;;;;;18.30;16.40;;;16.60;99.90;;;;;;2631012;39;20241;-79
2021/08/20 03:08:41;;;;;;;18.40;16.55;;;16.60;99.90;;;;;;2630825;47;20130;-77
2021/08/20 03:11:12;;;;;;;16.08;14.27;;;16.60;99.90;;;;;;2630613;46;20165;-78
2021/08/20 03:13:42;;;;;;;16.23;14.55;;;16.60;99.90;;;;;;2630786;54;20170;-76
2021/08/20 03:16:14;;;;;;;18.85;15.95;;;16.50;99.90;;;;;;2630469;54;20130;-78
2021/08/20 03:18:45;;;;;;;17.95;16.15;;;16.60;99.90;;;;;;2630754;46;20849;-78
2021/08/20 03:21:17;;;;;;;17.98;16.17;;;16.60;99.90;;;;;;2637781;39;20647;-78
2021/08/20 03:23:56;;;;;;;19.77;16.65;;;16.50;99.90;;;;;;2630632;54;20129;-78
2021/08/20 03:26:35;;;;;;;19.27;17.33;;;16.50;99.90;;;;;;2630548;54;20150;-78
2021/08/20 03:29:13;;;;;;;20.60;18.30;;;16.50;99.90;;;;;;2630763;54;20144;-78
2021/08/20 03:32:10;;;;;;;21.02;16.58;;;16.60;99.90;;;;;;2630522;54;20160;-79
2021/08/20 03:34:48;;;;;;;18.83;16.90;;;16.50;99.90;;;;;;2630594;47;20152;-78
2021/08/20 03:37:27;;;;;;;18.23;16.45;;;16.50;99.90;;;;;;2630725;54;20159;-79
2021/08/20 03:40:05;;;;;;;21.17;18.98;;;16.40;99.90;;;;;;2630596;54;20126;-79
2021/08/20 03:42:44;;;;;;;17.27;15.50;;;16.50;99.90;;;;;;2630723;54;20153;-78
2021/08/20 03:45:40;;;;;;;21.35;17.92;;;16.40;99.90;;;;;;2630687;54;20177;-79
2021/08/20 03:48:34;;;;;;;18.15;16.25;;;16.40;99.90;;;;;;2630613;54;20126;-79
2021/08/20 03:51:13;;;;;;;18.33;16.55;;;16.40;99.90;;;;;;2630532;54;20399;-79
2021/08/20 03:53:50;;;;;;;17.15;15.45;;;16.30;99.90;;;;;;2630659;54;20140;-79
2021/08/20 03:56:28;;;;;;;18.63;16.85;;;16.40;99.90;;;;;;2630543;46;20172;-79
2021/08/20 03:59:33;;;;;;;20.40;17.00;;;16.30;99.90;;;;;;2630738;54;20149;-79
2021/08/20 04:02:17;;;;;;;23.73;16.13;;;16.30;99.90;;;;;;2630557;54;20152;-79
2021/08/20 04:04:58;;;;;;;19.02;16.85;;;16.30;99.90;;;;;;2630345;54;20176;-79
2021/08/20 04:07:55;;;;;;;17.63;16.08;;;16.30;99.90;;;;;;2630680;54;20145;-79
2021/08/20 04:10:58;;;;;;;18.35;16.50;;;16.20;99.90;;;;;;2630781;47;20155;-78
2021/08/20 04:13:52;;;;;;;20.58;18.27;;;16.20;99.90;;;;;;2630502;54;20153;-78
2021/08/20 04:16:29;;;;;;;21.83;18.23;;;16.20;99.90;;;;;;2633062;39;20691;-80
2021/08/20 04:19:07;;;;;;;20.83;18.70;;;16.20;99.90;;;;;;2630531;54;20173;-80
2021/08/20 04:21:47;;;;;;;24.42;21.85;;;16.20;99.90;;;;;;2659611;39;20781;-80
2021/08/20 04:24:26;;;;;;;23.45;21.25;;;16.10;99.90;;;;;;2630944;54;20145;-79
2021/08/20 04:27:08;;;;;;;32.40;26.85;;;16.10;99.90;;;;;;2631296;54;20148;-79
2021/08/20 04:30:09;;;;;;;26.33;23.52;;;16.10;99.90;;;;;;2631229;54;20177;-79
2021/08/20 04:33:10;;;;;;;29.88;26.52;;;16.00;99.90;;;;;;2631280;54;20145;-78
2021/08/20 04:36:06;;;;;;;29.92;25.23;;;16.00;99.90;;;;;;2631320;54;20149;-78
2021/08/20 04:38:57;;;;;;;29.30;26.13;;;16.00;99.90;;;;;;2631236;54;20276;-78
2021/08/20 04:41:57;;;;;;;29.25;25.58;;;16.00;99.90;;;;;;2631313;54;20840;-79
2021/08/20 04:44:46;;;;;;;28.95;25.80;;;16.10;99.90;;;;;;2630970;54;20801;-78
2021/08/20 04:47:54;;;;;;;31.00;25.60;;;16.00;99.90;;;;;;2631127;54;20149;-79
2021/08/20 04:50:51;;;;;;;29.85;25.52;;;16.10;99.90;;;;;;2631169;54;20122;-79
2021/08/20 04:53:34;;;;;;;31.98;28.63;;;16.10;99.90;;;;;;2631160;54;20181;-79
2021/08/20 04:56:33;;;;;;;32.25;25.88;;;16.10;99.90;;;;;;2631090;54;20141;-79
2021/08/20 04:59:11;;;;;;;30.55;27.23;;;16.20;99.90;;;;;;2635824;39;20703;-79
2021/08/20 05:01:50;;;;;;;31.55;28.23;;;16.20;99.90;;;;;;2631343;54;20133;-79
2021/08/20 05:04:28;;;;;;;33.40;29.83;;;16.10;99.90;;;;;;2634284;39;20869;-78
2021/08/20 05:07:08;;;;;;;30.83;27.73;;;16.10;99.90;;;;;;2631353;46;20140;-80
2021/08/20 05:09:45;;;;;;;32.35;27.70;;;16.00;99.90;;;;;;2631415;47;20169;-79
2021/08/20 05:12:25;;;;;;;29.10;26.02;;;16.10;99.90;;;;;;2631333;54;20130;-78
2021/08/20 05:15:03;;;;;;;30.42;27.15;;;16.10;99.90;;;;;;2631071;54;20153;-80
2021/08/20 05:17:40;;;;;;;28.67;25.67;;;16.00;99.90;;;;;;2631253;54;20149;-79
2021/08/20 05:20:17;;;;;;;28.25;24.90;;;16.00;99.90;;;;;;2631264;54;20129;-79
2021/08/20 05:22:57;;;;;;;31.17;25.92;;;16.10;99.90;;;;;;2631307;54;20152;-81
2021/08/20 05:25:35;;;;;;;32.88;28.23;;;16.00;99.90;;;;;;2630772;54;20167;-79
2021/08/20 05:28:16;;;;;;;29.10;26.00;;;16.10;99.90;;;;;;2631285;47;20165;-79
2021/08/20 05:30:53;;;;;;;28.70;25.67;;;16.00;99.90;;;;;;2631440;46;20156;-78
2021/08/20 05:33:31;;;;;;;31.00;27.75;;;15.90;99.90;;;;;;2631198;54;20145;-79
2021/08/20 05:36:09;;;;;;;30.23;26.98;;;16.00;99.90;;;;;;2631106;54;20133;-79
2021/08/20 05:38:46;;;;;;;33.58;27.48;;;16.20;99.90;;;;;;2631234;54;20133;-80
2021/08/20 05:41:24;;;;;;;32.13;28.60;;;16.20;99.90;;;;;;2631247;54;20153;-79
2021/08/20 05:44:04;;;;;;;26.95;23.70;;;16.10;99.90;;;;;;2631129;54;20149;-78
2021/08/20 05:46:41;;;;;;;29.23;26.05;;;16.20;99.90;;;;;;2630881;54;20149;-76
2021/08/20 05:49:18;;;;;;;24.20;21.77;;;16.10;99.90;;;;;;2631062;54;20187;-79
2021/08/20 05:51:56;;;;;;;25.20;22.70;;;16.20;99.90;;;;;;2631166;54;20125;-79
2021/08/20 05:54:40;;;;;;;23.63;20.52;;;16.30;99.90;;;;;;2630748;54;20173;-79
2021/08/20 05:57:18;;;;;;;24.48;21.92;;;16.40;99.90;;;;;;2631283;54;20149;-78
2021/08/20 05:59:58;;;;;;;22.75;20.48;;;16.40;99.90;;;;;;2631158;54;20153;-78
2021/08/20 06:02:35;;;;;;;22.70;20.17;;;16.40;99.90;;;;;;2631337;54;20129;-80
2021/08/20 06:05:13;;;;;;;22.05;19.75;;;16.60;99.90;;;;;;2633382;46;20272;-80
2021/08/20 06:07:51;;;;;;;21.98;19.55;;;16.60;99.90;;;;;;2631007;54;20134;-78
2021/08/20 06:10:31;;;;;;;20.02;17.92;;;16.80;99.90;;;;;;2631313;54;20133;-78
2021/08/20 06:13:09;;;;;;;17.85;16.00;;;16.90;99.90;;;;;;2631052;54;20126;-79
2021/08/20 06:15:49;;;;;;;16.38;14.95;;;17.00;99.90;;;;;;2644466;31;20918;-79
2021/08/20 06:18:26;;;;;;;17.65;15.98;;;17.10;99.90;;;;;;2630878;54;20141;-79
2021/08/20 06:21:03;;;;;;;18.40;16.52;;;17.10;99.90;;;;;;2631063;54;20789;-78
2021/08/20 06:23:41;;;;;;;18.30;16.38;;;17.10;99.90;;;;;;2638035;39;20634;-78
2021/08/20 06:26:18;;;;;;;19.25;15.70;;;17.10;99.90;;;;;;2630966;46;20125;-79
2021/08/20 06:28:55;;;;;;;17.52;15.63;;;17.10;99.90;;;;;;2631065;54;20141;-79
2021/08/20 06:31:36;;;;;;;18.85;16.98;;;17.10;99.90;;;;;;2630794;54;20168;-78
2021/08/20 06:34:14;;;;;;;20.63;16.30;;;17.20;99.90;;;;;;2630051;54;20176;-77
2021/08/20 06:36:51;;;;;;;19.20;17.20;;;17.10;99.90;;;;;;2628580;54;20157;-77
2021/08/20 06:39:29;;;;;;;22.23;18.80;;;17.10;99.90;;;;;;2626160;54;20423;-78
2021/08/20 06:42:07;;;;;;;17.70;15.13;;;17.10;99.90;;;;;;2630391;54;20403;-80
2021/08/20 06:44:45;;;;;;;18.70;15.95;;;17.30;99.90;;;;;;2629664;54;20184;-79
2021/08/20 06:47:25;;;;;;;18.88;17.05;;;17.40;99.90;;;;;;2630348;47;20200;-80
2021/08/20 06:50:02;;;;;;;17.70;15.85;;;17.50;99.90;;;;;;2630022;47;20149;-81
2021/08/20 06:52:40;;;;;;;16.63;14.95;;;17.70;99.90;;;;;;2629912;54;20156;-78
2021/08/20 06:55:20;;;;;;;16.88;14.13;;;17.80;99.90;;;;;;2628861;54;20172;-79
2021/08/20 06:57:57;;;;;;;16.33;14.65;;;17.90;99.90;;;;;;2629841;47;20160;-77
2021/08/20 07:00:34;;;;;;;16.40;13.57;;;17.80;99.90;;;;;;2629025;54;20134;-80
2021/08/20 07:03:14;;;;;;;14.40;12.30;;;17.80;99.90;;;;;;2629693;54;20159;-80
2021/08/20 07:05:52;;;;;;;15.68;13.95;;;18.10;99.90;;;;;;2629683;54;20184;-80
2021/08/20 07:08:29;;;;;;;13.55;12.20;;;18.00;99.90;;;;;;2629813;54;20141;-77
2021/08/20 07:11:07;;;;;;;14.40;12.25;;;18.00;99.90;;;;;;2629968;54;20137;-79
2021/08/20 07:13:44;;;;;;;14.85;13.40;;;18.00;99.90;;;;;;2641420;31;20822;-80
2021/08/20 07:16:22;;;;;;;16.08;12.55;;;18.00;99.90;;;;;;2629985;54;20168;-80
2021/08/20 07:19:02;;;;;;;14.90;13.23;;;18.10;99.90;;;;;;2629874;54;20421;-80
2021/08/20 07:21:31;;;;;;;14.30;12.88;;;18.20;99.90;;;;;;2630228;54;20773;-79
2021/08/20 07:24:09;;;;;;;13.48;10.75;;;18.20;99.90;;;;;;2630209;54;20175;-80
2021/08/20 07:26:46;;;;;;;16.40;11.40;;;18.10;99.90;;;;;;2630074;54;20170;-80
2021/08/20 07:29:24;;;;;;;13.65;12.30;;;18.10;99.90;;;;;;2629511;54;20176;-78
2021/08/20 07:32:01;;;;;;;16.50;12.52;;;18.00;99.90;;;;;;2629868;54;20156;-78
2021/08/20 07:34:41;;;;;;;15.25;13.60;;;18.10;99.90;;;;;;2629841;54;20504;-80
2021/08/20 07:37:18;;;;;;;14.23;12.82;;;18.10;99.90;;;;;;2629923;54;20152;-79
2021/08/20 07:39:56;;;;;;;14.85;13.27;;;18.30;99.90;;;;;;2631576;39;20722;-81
2021/08/20 07:42:34;;;;;;;18.48;14.18;;;18.30;99.90;;;;;;2629879;54;20152;-80
2021/08/20 07:45:12;;;;;;;15.25;13.38;;;18.70;99.90;;;;;;2629869;39;20465;-79
2021/08/20 07:47:52;;;;;;;16.08;14.38;;;18.50;99.90;;;;;;2629978;39;20782;-78
2021/08/20 07:50:32;;;;;;;15.10;11.15;;;18.40;99.90;;;;;;2629776;54;20242;-76
2021/08/20 07:53:10;;;;;;;14.27;12.80;;;18.50;99.90;;;;;;2629473;54;20145;-79
2021/08/20 07:55:48;;;;;;;15.68;12.93;;;18.50;99.90;;;;;;2628657;54;20211;-78
2021/08/20 07:58:25;;;;;;;19.88;14.85;;;18.70;99.90;;;;;;2630537;47;20192;-79
2021/08/20 08:01:02;;;;;;;16.05;13.57;;;19.00;99.90;;;;;;2630274;54;20152;-80
2021/08/20 08:03:40;;;;;;;13.63;12.23;;;19.20;99.90;;;;;;2630366;54;20161;-79
2021/08/20 08:06:20;;;;;;;12.63;11.40;;;19.10;99.90;;;;;;2630398;54;20148;-79
2021/08/20 08:08:57;;;;;;;13.02;11.73;;;19.10;99.90;;;;;;2630450;54;20157;-77
2021/08/20 08:11:36;;;;;;;12.48;11.18;;;19.30;99.90;;;;;;2630766;54;20148;-79
2021/08/20 08:14:13;;;;;;;13.35;11.88;;;19.40;99.90;;;;;;2630680;54;20257;-76
2021/08/20 08:16:44;;;;;;;12.65;10.98;;;19.40;99.90;;;;;;2630112;54;20145;-79
2021/08/20 08:19:21;;;;;;;15.07;12.60;;;19.30;99.90;;;;;;2629865;54;20157;-80
2021/08/20 08:22:01;;;;;;;13.27;11.23;;;19.30;99.90;;;;;;2632194;46;20153;-80
2021/08/20 08:24:30;;;;;;;14.80;13.30;;;19.40;99.90;;;;;;2630204;47;20184;-79
2021/08/20 08:27:08;;;;;;;12.77;11.25;;;19.60;99.90;;;;;;2631028;39;20948;-80
2021/08/20 08:29:46;;;;;;;13.57;12.15;;;19.60;99.90;;;;;;2629235;54;20146;-80
2021/08/20 08:32:23;;;;;;;14.73;12.95;;;19.60;99.90;;;;;;2624869;54;20272;-43
2021/08/20 08:35:00;;;;;;;13.88;12.57;;;19.30;99.90;;;;;;2616740;39;20578;-43
2021/08/20 08:37:40;;;;;;;15.30;13.70;;;19.20;99.90;;;;;;2616774;39;20531;-43
2021/08/20 08:40:18;;;;;;;14.15;11.55;;;19.30;99.90;;;;;;2616321;54;20265;-43
2021/08/20 08:42:56;;;;;;;13.23;11.95;;;19.50;99.90;;;;;;2616866;54;20701;-43
2021/08/20 08:45:34;;;;;;;12.70;11.40;;;19.40;99.90;;;;;;2616892;54;20790;-41
2021/08/20 08:48:13;;;;;;;17.90;16.30;;;19.40;99.90;;;;;;2616547;54;20675;-43
2021/08/20 08:50:50;;;;;;;19.65;17.60;;;19.60;99.90;;;;;;2616757;54;20244;-41
2021/08/20 08:53:30;;;;;;;19.58;17.50;;;19.80;99.90;;;;;;2616992;54;20149;-42
2021/08/20 08:56:08;;;;;;;16.55;14.95;;;19.60;99.90;;;;;;2616569;54;20689;-41
2021/08/20 08:58:45;;;;;;;21.02;15.68;;;19.60;99.90;;;;;;2616796;54;20141;-43
2021/08/20 09:01:31;;;;;;;15.57;14.15;;;19.90;99.90;;;;;;2617106;39;20654;-41
2021/08/20 09:04:10;;;;;;;15.18;13.68;;;19.90;99.90;;;;;;2617007;54;20183;-42
2021/08/20 09:06:50;;;;;;;17.38;13.93;;;19.70;99.90;;;;;;2617265;54;20157;-42
2021/08/20 09:09:30;;;;;;;13.65;12.20;;;20.00;99.90;;;;;;2617410;39;20569;-42
2021/08/20 09:12:09;;;;;;;11.73;10.55;;;20.40;99.90;;;;;;2616898;54;20145;-42
2021/08/20 09:14:46;;;;;;;14.20;11.10;;;20.50;99.90;;;;;;2616586;54;20719;-40
2021/08/20 09:17:32;;;;;;;10.70;9.60;;;20.50;99.90;;;;;;2616981;39;20639;-42
2021/08/20 09:20:17;;;;;;;10.95;9.77;;;20.50;99.90;;;;;;2615829;54;20177;-43
2021/08/20 09:22:58;;;;;;;12.45;11.13;;;20.70;99.90;;;;;;2616764;54;20166;-42
2021/08/20 09:25:40;;;;;;;11.93;10.38;;;20.90;99.90;;;;;;2616727;54;20573;-42
2021/08/20 09:28:23;;;;;;;13.75;9.68;;;20.50;99.90;;;;;;2616726;54;20182;-43
2021/08/20 09:31:08;;;;;;;18.48;11.27;;;20.10;99.90;;;;;;2616845;54;20157;-42
2021/08/20 09:33:53;;;;;;;11.10;9.50;;;19.90;99.90;;;;;;2616775;54;20679;-42
2021/08/20 09:36:30;;;;;;;10.35;9.45;;;19.80;99.90;;;;;;2616437;54;20188;-41
2021/08/20 09:39:07;;;;;;;9.88;8.88;;;19.70;99.90;;;;;;2617152;39;20575;-42
2021/08/20 09:41:48;;;;;;;10.93;9.18;;;19.70;99.90;;;;;;2616834;54;20176;-41
2021/08/20 09:44:29;;;;;;;9.77;8.15;;;20.00;99.90;;;;;;2616688;54;20145;-43
2021/08/20 09:47:06;;;;;;;10.35;7.30;;;20.60;99.90;;;;;;2616843;54;20675;-43
2021/08/20 09:49:59;;;;;;;7.30;6.55;;;21.00;99.90;;;;;;2616906;54;20161;-43
2021/08/20 09:52:37;;;;;;;10.45;7.72;;;21.10;99.90;;;;;;2616991;54;20146;-40
2021/08/20 09:55:15;;;;;;;7.97;7.18;;;21.10;99.90;;;;;;2617183;39;20587;-45
2021/08/20 09:57:55;;;;;;;9.27;8.02;;;21.10;99.90;;;;;;2617444;54;20149;-41
2021/08/20 10:00:35;;;;;;;8.85;8.00;;;20.80;99.90;;;;;;2617557;54;20256;-44
2021/08/20 10:03:18;;;;;;;10.60;9.13;;;20.70;99.90;;;;;;2617430;54;20160;-42
2021/08/20 10:05:57;;;;;;;8.98;8.15;;;20.90;99.90;;;;;;2616655;54;20191;-41
2021/08/20 10:08:35;;;;;;;8.80;8.00;;;20.90;99.90;;;;;;2617206;54;20153;-42
2021/08/20 10:11:14;;;;;;;9.43;8.45;;;21.20;99.90;;;;;;2616978;54;20173;-44
2021/08/20 10:13:56;;;;;;;11.90;8.15;;;21.20;99.90;;;;;;2615700;54;20240;-43
2021/08/20 10:16:25;;;;;;;9.57;8.68;;;21.60;99.90;;;;;;2615856;54;20189;-43
2021/08/20 10:18:54;;;;;;;9.10;8.27;;;21.40;99.90;;;;;;2615415;51;20262;-43
2021/08/20 10:21:22;;;;;;;9.90;7.70;;;21.40;99.90;;;;;;2619100;54;20145;-41
2021/08/20 10:23:52;;;;;;;9.00;8.10;;;21.70;99.90;;;;;;2618153;54;20145;-42
2021/08/20 10:26:22;;;;;;;8.43;6.53;;;21.30;99.90;;;;;;2618101;54;20192;-42
2021/08/20 10:28:54;;;;;;;7.75;7.05;;;21.30;99.90;;;;;;2618668;54;20155;-44
2021/08/20 10:31:24;;;;;;;9.68;7.82;;;21.40;99.90;;;;;;2618331;54;20149;-43
2021/08/20 10:33:53;;;;;;;6.97;6.30;;;21.80;99.90;;;;;;2618931;54;20678;-42
2021/08/20 10:36:38;;;;;;;8.77;6.65;;;21.50;99.90;;;;;;2619270;54;20196;-42
2021/08/20 10:39:07;;;;;;;8.02;7.22;;;21.30;99.90;;;;;;2618536;54;20141;-43
2021/08/20 10:41:36;;;;;;;8.00;7.30;;;21.10;99.90;;;;;;2616665;51;20164;-41
2021/08/20 10:44:21;;;;;;;10.38;7.00;;;20.70;99.90;;;;;;2616379;54;20153;-40
2021/08/20 10:47:02;;;;;;;6.68;6.07;;;21.00;99.90;;;;;;2616672;54;20675;-41
2021/08/20 10:49:45;;;;;;;8.10;7.25;;;21.50;99.90;;;;;;2615521;54;20256;-46
2021/08/20 10:52:33;;;;;;;8.77;7.60;;;21.90;99.90;;;;;;2616320;54;20181;-41
2021/08/20 10:55:27;;;;;;;8.18;6.60;;;22.10;99.90;;;;;;2616667;39;20595;-40
2021/08/20 10:58:10;;;;;;;8.18;7.40;;;22.40;99.90;;;;;;2616433;54;20671;-42
2021/08/20 11:00:59;;;;;;;9.80;6.55;;;22.20;99.90;;;;;;2614966;54;20252;-40
2021/08/20 11:03:54;;;;;;;6.85;5.32;;;22.30;99.90;;;;;;2615962;54;20153;-42
2021/08/20 11:06:55;;;;;;;8.10;5.75;;;22.30;99.90;;;;;;2616325;54;20173;-40
2021/08/20 11:09:36;;;;;;;6.68;6.07;;;22.00;99.90;;;;;;2616581;54;20163;-40
2021/08/20 11:12:06;;;;;;;5.60;4.85;;;21.70;99.90;;;;;;2616640;54;20148;-42
2021/08/20 11:14:43;;;;;;;5.60;4.55;;;21.70;99.90;;;;;;2615925;54;20189;-43
2021/08/20 11:17:48;;;;;;;5.60;5.05;;;21.90;99.90;;;;;;2616300;54;20184;-42
2021/08/20 11:20:26;;;;;;;5.63;5.13;;;21.60;99.90;;;;;;2615926;54;20154;-41
2021/08/20 11:23:18;;;;;;;5.00;4.53;;;21.50;99.90;;;;;;2616618;54;20156;-43
2021/08/20 11:25:57;;;;;;;6.88;4.50;;;21.60;99.90;;;;;;2616597;39;20564;-42
2021/08/20 11:28:36;;;;;;;4.82;4.35;;;21.50;99.90;;;;;;2616506;54;20141;-43
2021/08/20 11:31:15;;;;;;;5.05;4.55;;;21.70;99.90;;;;;;2617815;54;20149;-44
2021/08/20 11:33:48;;;;;;;4.60;4.15;;;21.60;99.90;;;;;;2619588;54;20144;-41
2021/08/20 11:36:19;;;;;;;4.53;4.13;;;21.60;99.90;;;;;;2618826;54;20164;-41
2021/08/20 11:38:49;;;;;;;6.22;4.38;;;21.30;99.90;;;;;;2616628;54;20169;-42
2021/08/20 11:41:23;;;;;;;5.05;4.55;;;21.50;99.90;;;;;;2615639;54;20153;-41
2021/08/20 11:43:54;;;;;;;4.18;3.78;;;22.10;99.90;;;;;;2616461;54;20141;-41
2021/08/20 11:46:25;;;;;;;5.93;5.28;;;22.90;99.90;;;;;;2616812;54;20553;-40
2021/08/20 11:48:58;;;;;;;6.63;4.38;;;23.20;99.90;;;;;;2616768;54;20148;-41
2021/08/20 11:51:29;;;;;;;4.78;4.20;;;23.00;99.90;;;;;;2616531;47;20224;-44
2021/08/20 11:53:58;;;;;;;12.75;5.55;;;22.80;99.90;;;;;;2616616;54;20145;-41
2021/08/20 11:56:27;;;;;;;6.00;4.70;;;22.60;99.90;;;;;;2616264;39;20517;-45
2021/08/20 11:58:57;;;;;;;6.65;5.55;;;23.20;99.90;;;;;;2615546;54;20666;-41
2021/08/20 12:01:28;;;;;;;6.78;5.57;;;23.50;99.90;;;;;;2616354;54;20172;-42
2021/08/20 12:04:01;;;;;;;6.07;4.47;;;23.20;99.90;;;;;;2616400;54;20683;-41
2021/08/20 12:06:32;;;;;;;4.90;4.20;;;23.00;99.90;;;;;;2616299;54;20740;-42
2021/08/20 12:09:11;;;;;;;5.10;4.18;;;22.70;99.90;;;;;;2616665;39;20707;-41
2021/08/20 12:11:42;;;;;;;4.50;4.10;;;22.30;99.90;;;;;;2616530;46;20165;-42
2021/08/20 12:14:17;;;;;;;4.80;4.30;;;22.30;99.90;;;;;;2616162;54;20165;-43
2021/08/20 12:16:49;;;;;;;4.72;4.32;;;22.60;99.90;;;;;;2616304;47;20145;-43
2021/08/20 12:19:24;;;;;;;5.00;3.65;;;23.00;99.90;;;;;;2615530;54;20157;-41
2021/08/20 12:21:55;;;;;;;4.72;4.32;;;23.10;99.90;;;;;;2615754;54;20156;-40
2021/08/20 12:24:35;;;;;;;4.53;4.07;;;23.20;99.90;;;;;;2616110;54;20145;-41
2021/08/20 12:27:18;;;;;;;5.65;5.15;;;23.00;99.90;;;;;;2616565;54;20165;-41
2021/08/20 12:30:11;;;;;;;6.13;5.50;;;22.70;99.90;;;;;;2616334;54;20137;-41
2021/08/20 12:32:41;;;;;;;5.18;4.75;;;22.60;99.90;;;;;;2616339;54;20675;-43
2021/08/20 12:35:17;;;;;;;4.97;4.57;;;22.30;99.90;;;;;;2615992;54;20184;-42
2021/08/20 12:38:02;;;;;;;5.03;4.10;;;22.20;99.90;;;;;;2616141;54;20350;-43
2021/08/20 12:40:48;;;;;;;3.83;3.53;;;22.20;99.90;;;;;;2615887;54;20259;-41
2021/08/20 12:43:24;;;;;;;4.72;4.32;;;22.10;99.90;;;;;;2614345;47;20168;-41
2021/08/20 12:46:08;;;;;;;3.90;3.60;;;22.20;99.90;;;;;;2618256;39;20256;-41
2021/08/20 12:51:15;;;;;;;3.65;3.17;;;22.00;99.90;;;;;;2630821;54;20212;-79
2021/08/20 12:53:45;;;;;;;4.35;3.95;;;22.10;99.90;;;;;;2631783;47;20163;-77
2021/08/20 12:56:14;;;;;;;3.47;3.15;;;22.20;99.90;;;;;;2631678;54;20155;-78
2021/08/20 12:58:43;;;;;;;4.70;4.30;;;22.20;99.90;;;;;;2628493;54;20211;-80
2021/08/20 13:01:11;;;;;;;4.97;3.83;;;22.10;99.90;;;;;;2631719;47;20153;-77
2021/08/20 13:03:42;;;;;;;4.70;4.30;;;21.90;99.90;;;;;;2629162;47;20235;-80
2021/08/20 13:06:14;;;;;;;6.32;4.43;;;21.70;99.90;;;;;;2631605;47;20154;-80
2021/08/20 13:08:43;;;;;;;5.00;4.60;;;21.60;99.90;;;;;;2631242;47;20257;-81
2021/08/20 13:11:13;;;;;;;7.22;4.90;;;21.50;99.90;;;;;;2628571;54;20228;-80
2021/08/20 13:13:41;;;;;;;9.10;5.07;;;21.40;99.90;;;;;;2631121;47;20173;-76
2021/08/20 13:16:10;;;;;;;5.03;4.53;;;21.50;99.90;;;;;;2631110;54;20150;-76
2021/08/20 13:18:39;;;;;;;5.78;5.18;;;21.60;99.90;;;;;;2631688;46;20833;-79
2021/08/20 13:21:08;;;;;;;7.63;5.60;;;21.60;99.90;;;;;;2631450;47;20145;-77
2021/08/20 13:23:40;;;;;;;5.75;5.25;;;22.00;99.90;;;;;;2631615;46;20168;-74